createdAt,value
2023-01-03T00:01:48.607Z,96877.09
2023-01-03T00:04:17.709Z,96873.84
2023-01-03T00:06:48.258Z,96867.84
2023-01-03T00:09:18.768Z,96868.78
2023-01-03T00:12:07.374Z,96863.56
2023-01-03T00:14:38.543Z,96855.91
2023-01-03T00:17:08.938Z,96854.16
2023-01-03T00:19:39.738Z,96866.03
2023-01-03T00:22:08.920Z,96862.66
2023-01-03T00:24:37.993Z,96866.97
2023-01-03T00:27:06.869Z,96868.00
2023-01-03T00:29:35.887Z,96874.19
2023-01-03T00:32:04.330Z,96871.78
2023-01-03T00:34:34.763Z,96878.75
2023-01-03T00:37:03.845Z,96884.81
2023-01-03T00:39:32.811Z,96881.03
2023-01-03T00:42:01.547Z,96888.59
2023-01-03T00:44:30.969Z,96893.66
2023-01-03T00:47:00.000Z,96892.94
2023-01-03T00:49:31.707Z,96899.09
2023-01-03T00:52:02.203Z,96908.53
2023-01-03T00:54:30.834Z,96902.00
2023-01-03T00:56:59.328Z,96908.59
2023-01-03T00:59:28.204Z,96897.69
2023-01-03T01:01:58.084Z,96902.72
2023-01-03T01:04:48.248Z,96912.00
2023-01-03T01:07:18.545Z,96906.94
2023-01-03T01:09:47.519Z,96915.53
2023-01-03T01:12:16.041Z,96923.97
2023-01-03T01:14:45.211Z,96938.91
2023-01-03T01:17:19.154Z,96943.91
2023-01-03T01:19:50.942Z,96947.28
2023-01-03T01:22:21.009Z,96949.91
2023-01-03T01:24:49.536Z,96954.81
2023-01-03T01:27:18.200Z,96959.81
2023-01-03T01:29:47.057Z,96967.22
2023-01-03T01:32:15.938Z,96968.09
2023-01-03T01:34:44.588Z,96974.72
2023-01-03T01:37:14.189Z,96972.09
2023-01-03T01:39:44.700Z,96967.91
2023-01-03T01:42:33.007Z,96973.69
2023-01-03T01:45:01.961Z,96974.38
2023-01-03T01:47:38.051Z,96976.03
2023-01-03T01:50:21.292Z,96975.06
2023-01-03T01:52:53.003Z,96974.13
2023-01-03T01:55:27.289Z,96976.59
2023-01-03T01:57:56.100Z,96977.38
2023-01-03T02:00:24.831Z,96974.09
2023-01-03T02:02:55.022Z,96984.00
2023-01-03T02:05:24.460Z,96984.84
2023-01-03T02:07:55.062Z,96986.59
2023-01-03T02:10:32.095Z,96996.72
2023-01-03T02:13:07.581Z,96994.06
2023-01-03T02:15:47.057Z,96997.72
2023-01-03T02:18:39.419Z,96999.34
2023-01-03T02:22:04.394Z,96996.66
2023-01-03T02:25:00.415Z,96996.59
2023-01-03T02:28:21.750Z,97002.44
2023-01-03T02:30:53.557Z,96997.22
2023-01-03T02:33:27.703Z,96983.19
2023-01-03T02:36:03.759Z,97000.41
2023-01-03T02:38:39.877Z,97001.19
2023-01-03T02:41:12.004Z,97002.00
2023-01-03T02:43:52.233Z,97003.56
2023-01-03T02:46:26.130Z,97005.22
2023-01-03T02:49:08.374Z,97008.47
2023-01-03T02:51:39.167Z,97010.91
2023-01-03T02:54:34.218Z,97010.84
2023-01-03T02:57:06.405Z,97008.38
2023-01-03T02:59:38.538Z,97015.16
2023-01-03T03:02:08.914Z,97014.22
2023-01-03T03:04:38.370Z,97020.06
2023-01-03T03:07:09.893Z,97025.00
2023-01-03T03:09:58.631Z,97022.38
2023-01-03T03:12:46.140Z,97018.94
2023-01-03T03:15:16.357Z,97012.91
2023-01-03T03:17:47.264Z,97024.63
2023-01-03T03:20:33.851Z,97030.53
2023-01-03T03:23:21.921Z,97015.28
2023-01-03T03:25:52.381Z,97023.72
2023-01-03T03:28:37.668Z,97019.44
2023-01-03T03:31:09.632Z,97016.06
2023-01-03T03:33:43.412Z,97012.63
2023-01-03T03:36:14.821Z,97021.91
2023-01-03T03:38:44.752Z,97024.38
2023-01-03T03:41:37.937Z,96951.53
2023-01-03T03:44:31.610Z,97034.41
2023-01-03T03:47:49.664Z,97026.81
2023-01-03T03:50:45.633Z,97033.56
2023-01-03T03:53:15.941Z,97025.13
2023-01-03T03:55:49.539Z,97020.03
2023-01-03T03:58:39.070Z,97032.66
2023-01-03T04:01:08.532Z,97024.16
2023-01-03T04:03:37.478Z,97027.53
2023-01-03T04:06:12.396Z,97025.84
2023-01-03T04:08:41.435Z,97035.91
2023-01-03T04:11:31.833Z,97035.97
2023-01-03T04:14:00.645Z,97045.97
2023-01-03T04:16:29.488Z,97037.50
2023-01-03T04:18:59.132Z,97053.31
2023-01-03T04:21:29.318Z,97041.53
2023-01-03T04:23:57.934Z,97046.53
2023-01-03T04:26:29.220Z,97046.50
2023-01-03T04:28:57.936Z,97047.28
2023-01-03T04:31:27.047Z,97053.13
2023-01-03T04:33:55.781Z,97045.53
2023-01-03T04:36:24.730Z,97050.53
2023-01-03T04:38:54.850Z,97055.53
2023-01-03T04:41:23.370Z,97053.84
2023-01-03T04:44:02.549Z,97051.25
2023-01-03T04:46:35.525Z,97057.16
2023-01-03T04:49:04.814Z,97060.56
2023-01-03T04:51:34.129Z,97057.22
2023-01-03T04:54:05.233Z,97058.81
2023-01-03T04:56:35.856Z,97041.47
2023-01-03T04:59:04.716Z,97055.28
2023-01-03T05:01:33.819Z,97066.22
2023-01-03T05:04:03.505Z,97048.50
2023-01-03T05:06:34.898Z,97061.94
2023-01-03T05:09:04.873Z,97060.19
2023-01-03T05:11:33.412Z,97070.16
2023-01-03T05:14:01.861Z,97067.59
2023-01-03T05:16:30.356Z,97069.19
2023-01-03T05:18:59.346Z,97080.94
2023-01-03T05:21:45.294Z,97075.75
2023-01-03T05:24:32.988Z,97075.69
2023-01-03T05:27:03.662Z,97070.53
2023-01-03T05:29:32.636Z,97073.84
2023-01-03T05:32:01.445Z,97077.97
2023-01-03T05:34:30.584Z,97072.81
2023-01-03T05:36:59.344Z,97082.81
2023-01-03T05:39:33.371Z,97079.41
2023-01-03T05:42:02.362Z,97086.97
2023-01-03T05:44:32.373Z,97085.97
2023-01-03T05:47:01.604Z,97083.31
2023-01-03T05:49:33.908Z,97078.97
2023-01-03T05:52:02.415Z,97081.44
2023-01-03T05:54:32.733Z,97087.25
2023-01-03T05:57:01.154Z,97081.13
2023-01-03T05:59:29.563Z,97069.25
2023-01-03T06:01:58.605Z,97074.19
2023-01-03T06:04:27.332Z,97077.38
2023-01-03T06:06:56.379Z,97077.25
2023-01-03T06:09:25.309Z,97080.50
2023-01-03T06:11:55.456Z,97070.94
2023-01-03T06:14:24.104Z,97080.06
2023-01-03T06:17:12.157Z,97077.44
2023-01-03T06:19:40.585Z,97090.94
2023-01-03T06:22:11.007Z,97090.13
2023-01-03T06:24:40.062Z,97091.78
2023-01-03T06:27:10.040Z,97091.00
2023-01-03T06:29:38.722Z,97082.59
2023-01-03T06:32:09.778Z,97097.69
2023-01-03T06:34:45.991Z,97097.75
2023-01-03T06:37:14.883Z,97107.72
2023-01-03T06:39:43.506Z,97110.97
2023-01-03T06:42:30.625Z,97118.69
2023-01-03T06:45:16.643Z,97116.94
2023-01-03T06:48:02.880Z,97122.75
2023-01-03T06:50:48.631Z,97124.38
2023-01-03T06:53:19.861Z,97120.06
2023-01-03T06:55:56.109Z,97130.09
2023-01-03T06:58:26.880Z,97131.59
2023-01-03T07:00:56.275Z,97140.78
2023-01-03T07:03:24.993Z,97138.19
2023-01-03T07:05:53.669Z,97143.16
2023-01-03T07:08:23.260Z,97143.81
2023-01-03T07:10:51.885Z,97144.53
2023-01-03T07:13:46.240Z,97148.72
2023-01-03T07:16:16.629Z,97145.31
2023-01-03T07:18:50.838Z,97158.66
2023-01-03T07:21:23.477Z,97167.03
2023-01-03T07:23:53.751Z,97167.03
2023-01-03T07:26:25.458Z,97175.25
2023-01-03T07:28:54.626Z,97173.47
2023-01-03T07:31:25.390Z,97171.69
2023-01-03T07:33:54.530Z,97173.47
2023-01-03T07:36:23.666Z,97177.81
2023-01-03T07:38:55.197Z,97181.91
2023-01-03T07:41:25.643Z,97184.41
2023-01-03T07:43:53.368Z,97180.16
2023-01-03T07:46:24.963Z,97190.25
2023-01-03T07:48:57.416Z,97190.19
2023-01-03T07:51:33.126Z,97194.34
2023-01-03T07:54:02.649Z,97196.69
2023-01-03T07:56:31.196Z,97198.25
2023-01-03T07:59:00.155Z,97190.69
2023-01-03T08:01:35.479Z,97202.22
2023-01-03T08:04:05.913Z,97199.59
2023-01-03T08:06:34.872Z,97210.34
2023-01-03T08:09:34.826Z,97219.47
2023-01-03T08:12:26.289Z,97215.84
2023-01-03T08:15:00.173Z,97219.00
2023-01-03T08:17:30.702Z,97212.75
2023-01-03T08:19:59.315Z,97214.13
2023-01-03T08:22:29.646Z,97214.78
2023-01-03T08:25:46.347Z,97220.63
2023-01-03T08:28:15.149Z,97226.41
2023-01-03T08:30:48.382Z,97221.31
2023-01-03T08:33:20.584Z,97222.81
2023-01-03T08:35:52.869Z,97225.16
2023-01-03T08:38:24.308Z,97229.22
2023-01-03T08:40:53.041Z,97232.41
2023-01-03T08:43:22.205Z,97233.91
2023-01-03T08:45:51.296Z,97231.84
2023-01-03T08:48:48.351Z,97230.59
2023-01-03T08:51:17.128Z,97231.34
2023-01-03T08:53:45.970Z,97225.41
2023-01-03T08:56:14.648Z,97230.41
2023-01-03T08:58:43.603Z,97229.53
2023-01-03T09:01:12.571Z,97233.69
2023-01-03T09:03:42.571Z,97238.06
2023-01-03T09:06:12.600Z,97240.59
2023-01-03T09:08:41.091Z,97241.53
2023-01-03T09:11:10.964Z,97243.16
2023-01-03T09:13:39.898Z,97248.34
2023-01-03T09:16:10.803Z,97248.28
2023-01-03T09:18:40.566Z,97248.28
2023-01-03T09:21:09.527Z,97250.84
2023-01-03T09:23:39.309Z,97243.06
2023-01-03T09:26:08.611Z,97243.06
2023-01-03T09:28:37.844Z,97243.78
2023-01-03T09:31:07.232Z,97244.47
2023-01-03T09:33:36.239Z,97234.94
2023-01-03T09:36:08.504Z,97250.00
2023-01-03T09:38:39.341Z,97240.38
2023-01-03T09:41:15.346Z,97240.16
2023-01-03T09:43:46.147Z,97240.84
2023-01-03T09:46:19.804Z,97238.78
2023-01-03T09:48:48.692Z,97242.09
2023-01-03T09:51:37.719Z,97246.16
2023-01-03T09:54:29.782Z,97243.50
2023-01-03T09:57:15.949Z,97254.44
2023-01-03T10:00:02.443Z,97251.84
2023-01-03T10:03:27.217Z,97258.78
2023-01-03T10:06:06.899Z,97248.59
2023-01-03T10:08:59.988Z,97251.91
2023-01-03T10:11:34.843Z,97249.22
2023-01-03T10:14:19.059Z,97244.06
2023-01-03T10:16:56.384Z,97242.19
2023-01-03T10:19:45.157Z,97247.91
2023-01-03T10:22:16.022Z,97239.38
2023-01-03T10:24:47.598Z,97247.47
2023-01-03T10:27:22.579Z,97235.44
2023-01-03T10:29:57.445Z,97228.50
2023-01-03T10:32:43.429Z,97224.13
2023-01-03T10:35:21.244Z,97232.63
2023-01-03T10:37:53.000Z,97232.47
2023-01-03T10:40:21.679Z,97227.38
2023-01-03T10:42:55.612Z,97225.44
2023-01-03T10:45:24.596Z,97233.03
2023-01-03T10:48:00.289Z,97229.50
2023-01-03T10:50:29.883Z,97229.66
2023-01-03T10:53:02.414Z,97234.91
2023-01-03T10:55:31.023Z,97225.59
2023-01-03T10:58:03.184Z,97219.63
2023-01-03T11:00:34.028Z,97220.78
2023-01-03T11:03:16.665Z,97222.34
2023-01-03T11:05:46.860Z,97222.97
2023-01-03T11:08:18.381Z,97224.56
2023-01-03T11:10:56.068Z,97220.84
2023-01-03T11:13:31.350Z,97220.56
2023-01-03T11:16:03.735Z,97219.31
2023-01-03T11:18:33.258Z,97220.81
2023-01-03T11:21:11.053Z,97220.75
2023-01-03T11:24:03.855Z,97222.75
2023-01-03T11:26:47.809Z,97219.47
2023-01-03T11:30:00.031Z,97221.25
2023-01-03T11:32:41.730Z,97220.56
2023-01-03T11:35:34.557Z,97214.84
2023-01-03T11:38:12.166Z,97218.16
2023-01-03T11:40:47.518Z,97218.00
2023-01-03T11:43:27.679Z,97220.41
2023-01-03T11:46:10.253Z,97214.50
2023-01-03T11:49:00.716Z,97210.97
2023-01-03T11:51:36.368Z,97209.59
2023-01-03T11:54:13.854Z,97207.06
2023-01-03T11:56:44.815Z,97210.59
2023-01-03T11:59:41.734Z,97209.81
2023-01-03T12:02:55.814Z,97213.41
2023-01-03T12:05:37.455Z,97211.00
2023-01-03T12:08:17.334Z,97205.28
2023-01-03T12:10:49.631Z,97210.53
2023-01-03T12:13:29.671Z,97203.75
2023-01-03T12:16:04.237Z,97201.28
2023-01-03T12:18:43.948Z,97203.81
2023-01-03T12:21:16.413Z,97203.75
2023-01-03T12:23:47.019Z,97203.75
2023-01-03T12:26:16.688Z,97195.22
2023-01-03T12:28:50.124Z,97206.19
2023-01-03T12:31:31.347Z,97195.84
2023-01-03T12:34:08.986Z,97193.53
2023-01-03T12:36:43.207Z,97198.31
2023-01-03T12:39:33.699Z,97199.22
2023-01-03T12:42:07.115Z,97194.94
2023-01-03T12:44:38.878Z,97200.03
2023-01-03T12:47:09.420Z,97180.91
2023-01-03T12:49:42.495Z,97189.16
2023-01-03T12:52:16.738Z,97195.03
2023-01-03T12:54:49.170Z,97190.00
2023-01-03T12:57:33.724Z,97185.03
2023-01-03T13:00:12.517Z,97197.72
2023-01-03T13:02:47.928Z,97193.53
2023-01-03T13:05:26.503Z,97192.75
2023-01-03T13:08:04.318Z,97203.75
2023-01-03T13:10:35.481Z,97197.84
2023-01-03T13:13:04.992Z,97202.94
2023-01-03T13:15:37.876Z,97197.84
2023-01-03T13:18:34.451Z,97198.63
2023-01-03T13:21:41.867Z,97189.22
2023-01-03T13:24:12.942Z,97198.41
2023-01-03T13:27:37.197Z,97196.81
2023-01-03T13:30:20.513Z,97196.72
2023-01-03T13:32:52.134Z,97189.91
2023-01-03T13:35:31.420Z,97192.41
2023-01-03T13:38:13.278Z,97190.81
2023-01-03T13:41:16.689Z,97183.13
2023-01-03T13:43:39.967Z,97189.78
2023-01-03T13:46:28.004Z,97188.91
2023-01-03T13:48:58.845Z,97191.38
2023-01-03T13:51:54.111Z,97184.63
2023-01-03T13:55:06.753Z,97196.47
2023-01-03T14:00:33.730Z,97203.13
2023-01-03T14:03:21.647Z,97198.94
2023-01-03T14:06:04.090Z,97202.31
2023-01-03T14:08:42.994Z,97212.50
2023-01-03T14:11:30.432Z,97210.78
2023-01-03T14:14:01.413Z,97213.31
2023-01-03T14:17:02.585Z,97228.69
2023-01-03T14:19:32.684Z,97226.22
2023-01-03T14:22:26.841Z,97232.13
2023-01-03T14:24:56.814Z,97226.97
2023-01-03T14:27:29.305Z,97224.34
2023-01-03T14:29:57.932Z,97223.47
2023-01-03T14:32:34.411Z,97222.56
2023-01-03T14:35:04.052Z,97216.63
2023-01-03T14:37:35.171Z,97214.09
2023-01-03T14:40:06.975Z,97206.44
2023-01-03T14:42:35.681Z,97205.63
2023-01-03T14:45:06.367Z,97211.53
2023-01-03T14:47:38.898Z,97212.38
2023-01-03T14:50:09.081Z,97216.63
2023-01-03T14:52:41.068Z,97220.22
2023-01-03T14:55:14.606Z,97225.25
2023-01-03T14:57:44.265Z,97226.22
2023-01-03T15:00:18.620Z,97231.44
2023-01-03T15:02:51.509Z,97234.13
2023-01-03T15:05:29.092Z,97245.19
2023-01-03T15:08:09.427Z,97247.03
2023-01-03T15:10:47.149Z,97247.06
2023-01-03T15:13:20.687Z,97244.66
2023-01-03T15:15:55.377Z,97248.25
2023-01-03T15:18:27.226Z,97255.91
2023-01-03T15:20:57.003Z,97249.16
2023-01-03T15:23:38.931Z,97255.09
2023-01-03T15:26:08.502Z,97256.88
2023-01-03T15:28:38.701Z,97259.56
2023-01-03T15:31:47.157Z,97259.56
2023-01-03T15:34:18.707Z,97257.97
2023-01-03T15:36:49.748Z,97269.84
2023-01-03T15:39:20.238Z,97273.25
2023-01-03T15:42:42.227Z,97272.31
2023-01-03T15:44:55.680Z,97275.66
2023-01-03T15:47:25.501Z,97269.63
2023-01-03T15:49:58.314Z,97277.94
2023-01-03T15:52:31.443Z,97277.13
2023-01-03T15:55:00.218Z,97277.13
2023-01-03T15:57:32.045Z,97286.31
2023-01-03T16:00:03.729Z,97279.47
2023-01-03T16:02:33.313Z,97284.56
2023-01-03T16:05:03.883Z,97285.47
2023-01-03T16:07:32.831Z,97292.28
2023-01-03T16:10:01.559Z,97291.47
2023-01-03T16:12:34.120Z,97292.28
2023-01-03T16:15:03.842Z,97291.47
2023-01-03T16:17:32.684Z,97295.75
2023-01-03T16:20:03.093Z,97296.66
2023-01-03T16:22:34.907Z,97300.88
2023-01-03T16:25:04.330Z,97300.88
2023-01-03T16:27:33.406Z,97299.19
2023-01-03T16:30:01.856Z,97298.41
2023-01-03T16:32:31.423Z,97302.72
2023-01-03T16:35:03.531Z,97311.03
2023-01-03T16:37:32.608Z,97306.84
2023-01-03T16:40:01.037Z,97311.94
2023-01-03T16:42:29.779Z,97308.66
2023-01-03T16:44:58.559Z,97308.66
2023-01-03T16:47:32.944Z,97307.81
2023-01-03T16:50:31.806Z,97307.94
2023-01-03T16:53:00.469Z,97313.16
2023-01-03T16:55:31.140Z,97324.94
2023-01-03T16:58:00.661Z,97323.31
2023-01-03T17:03:14.340Z,97327.63
2023-01-03T17:05:44.524Z,97333.53
2023-01-03T17:08:17.966Z,97328.44
2023-01-03T17:10:48.799Z,97327.63
2023-01-03T17:13:26.600Z,97331.81
2023-01-03T17:15:56.046Z,97331.81
2023-01-03T17:18:26.969Z,97327.63
2023-01-03T17:21:00.152Z,97324.31
2023-01-03T17:23:54.364Z,97339.59
2023-01-03T17:26:24.359Z,97338.69
2023-01-03T17:28:53.641Z,97339.59
2023-01-03T17:31:23.875Z,97338.69
2023-01-03T17:33:53.343Z,97312.31
2023-01-03T17:36:26.181Z,97337.91
2023-01-03T17:39:00.236Z,97333.72
2023-01-03T17:41:46.810Z,97332.03
2023-01-03T17:44:16.125Z,97348.09
2023-01-03T17:47:02.392Z,97348.09
2023-01-03T17:49:31.220Z,97345.56
2023-01-03T17:52:02.980Z,97345.56
2023-01-03T17:54:33.344Z,97349.72
2023-01-03T17:57:01.944Z,97343.84
2023-01-03T17:59:30.973Z,97340.44
2023-01-03T18:01:59.955Z,97342.06
2023-01-03T18:04:50.237Z,97342.97
2023-01-03T18:07:21.940Z,97352.31
2023-01-03T18:09:50.995Z,97346.41
2023-01-03T18:12:21.452Z,97349.00
2023-01-03T18:14:50.501Z,97343.78
2023-01-03T18:17:27.758Z,97345.56
2023-01-03T18:19:57.322Z,97348.09
2023-01-03T18:22:28.138Z,97349.84
2023-01-03T18:24:57.489Z,97344.88
2023-01-03T18:27:27.562Z,97346.59
2023-01-03T18:29:58.835Z,97352.53
2023-01-03T18:32:29.250Z,97347.47
2023-01-03T18:35:00.148Z,97354.16
2023-01-03T18:37:34.115Z,97353.41
2023-01-03T18:40:07.443Z,97362.88
2023-01-03T18:42:53.497Z,97355.31
2023-01-03T18:45:22.252Z,97360.47
2023-01-03T18:47:50.813Z,97362.13
2023-01-03T18:50:20.625Z,97369.00
2023-01-03T18:52:51.277Z,97371.56
2023-01-03T18:55:22.106Z,97379.19
2023-01-03T18:57:51.493Z,97372.44
2023-01-03T19:00:22.363Z,97381.03
2023-01-03T19:02:51.407Z,97375.03
2023-01-03T19:05:20.747Z,97373.44
2023-01-03T19:08:05.855Z,97379.56
2023-01-03T19:10:34.615Z,97374.72
2023-01-03T19:13:03.672Z,97370.75
2023-01-03T19:15:32.533Z,97367.56
2023-01-03T19:18:02.185Z,97378.91
2023-01-03T19:20:30.622Z,97382.63
2023-01-03T19:22:59.702Z,97384.75
2023-01-03T19:25:32.207Z,97381.78
2023-01-03T19:28:02.406Z,97381.25
2023-01-03T19:30:39.065Z,97384.13
2023-01-03T19:33:16.181Z,97386.22
2023-01-03T19:36:19.153Z,97387.63
2023-01-03T19:39:06.199Z,97380.44
2023-01-03T19:41:57.555Z,97379.81
2023-01-03T19:44:26.925Z,97387.66
2023-01-03T19:46:56.650Z,97389.72
2023-01-03T19:49:25.144Z,97390.88
2023-01-03T19:51:54.406Z,97393.66
2023-01-03T19:54:23.429Z,97391.31
2023-01-03T19:56:56.672Z,97401.59
2023-01-03T19:59:28.481Z,97397.53
2023-01-03T20:02:24.200Z,97402.84
2023-01-03T20:04:46.656Z,97393.53
2023-01-03T20:07:16.288Z,97365.34
2023-01-03T20:09:47.554Z,97382.63
2023-01-03T20:12:22.465Z,97387.09
2023-01-03T20:14:52.508Z,97395.69
2023-01-03T20:17:22.246Z,97393.38
2023-01-03T20:19:51.306Z,97395.25
2023-01-03T20:22:53.456Z,97392.03
2023-01-03T20:25:24.904Z,97383.75
2023-01-03T20:28:06.146Z,97392.25
2023-01-03T20:30:36.077Z,97390.22
2023-01-03T20:33:10.449Z,97388.81
2023-01-03T20:38:28.363Z,97390.72
2023-01-03T20:40:58.002Z,97387.56
2023-01-03T20:43:28.663Z,97396.97
2023-01-03T20:46:01.527Z,97390.34
2023-01-03T20:48:30.777Z,97394.56
2023-01-03T20:51:00.166Z,97393.00
2023-01-03T20:53:29.540Z,97389.81
2023-01-03T20:55:58.266Z,97395.91
2023-01-03T20:58:28.735Z,97395.94
2023-01-03T21:01:04.662Z,97401.06
2023-01-03T21:03:34.946Z,97406.22
2023-01-03T21:06:04.700Z,97396.16
2023-01-03T21:08:50.741Z,97393.91
2023-01-03T21:11:19.691Z,97397.56
2023-01-03T21:13:49.574Z,97385.75
2023-01-03T21:16:32.433Z,97388.22
2023-01-03T21:19:06.877Z,97389.91
2023-01-03T21:21:38.829Z,97392.59
2023-01-03T21:24:08.243Z,97402.72
2023-01-03T21:26:37.291Z,97401.97
2023-01-03T21:29:07.598Z,97392.94
2023-01-03T21:31:37.512Z,97407.25
2023-01-03T21:34:08.038Z,97403.13
2023-01-03T21:36:38.022Z,97393.22
2023-01-03T21:39:06.854Z,97395.00
2023-01-03T21:41:56.946Z,97406.03
2023-01-03T21:44:27.519Z,97397.66
2023-01-03T21:46:56.203Z,97402.69
2023-01-03T21:49:24.765Z,97402.72
2023-01-03T21:51:53.870Z,97408.63
2023-01-03T21:54:22.689Z,97413.91
2023-01-03T21:56:51.765Z,97413.91
2023-01-03T21:59:20.828Z,97417.28
2023-01-03T22:02:08.770Z,97421.66
2023-01-03T22:04:37.683Z,97412.47
2023-01-03T22:07:07.756Z,97420.28
2023-01-03T22:09:54.241Z,97422.19
2023-01-03T22:12:23.100Z,97431.66
2023-01-03T22:14:56.206Z,97421.63
2023-01-03T22:17:26.097Z,97413.31
2023-01-03T22:19:54.822Z,97415.94
2023-01-03T22:22:24.239Z,97413.41
2023-01-03T22:24:53.073Z,97416.88
2023-01-03T22:27:21.624Z,97421.06
2023-01-03T22:29:50.341Z,97410.91
2023-01-03T22:32:19.049Z,97419.28
2023-01-03T22:34:48.851Z,97424.34
2023-01-03T22:37:18.056Z,97415.97
2023-01-03T22:39:47.624Z,97420.38
2023-01-03T22:42:19.758Z,97417.97
2023-01-03T22:44:56.523Z,97413.75
2023-01-03T22:47:25.262Z,97411.25
2023-01-03T22:49:55.921Z,97414.78
2023-01-03T22:52:27.477Z,97416.50
2023-01-03T22:54:56.027Z,97415.69
2023-01-03T22:57:27.473Z,97420.75
2023-01-03T22:59:55.749Z,97409.88
2023-01-03T23:02:28.824Z,97428.56
2023-01-03T23:04:59.310Z,97417.84
2023-01-03T23:07:27.944Z,97405.44
2023-01-03T23:09:56.269Z,97405.59
2023-01-03T23:12:42.223Z,97404.84
2023-01-03T23:15:11.642Z,97407.41
2023-01-03T23:17:58.900Z,97411.75
2023-01-03T23:20:31.646Z,97407.69
2023-01-03T23:23:03.221Z,97410.28
2023-01-03T23:25:33.363Z,97416.22
2023-01-03T23:28:01.849Z,97386.34
2023-01-03T23:30:30.636Z,97413.00
2023-01-03T23:32:59.476Z,97415.56
2023-01-03T23:35:32.344Z,97413.00
2023-01-03T23:38:00.996Z,97400.47
2023-01-03T23:40:29.990Z,97399.69
2023-01-03T23:43:01.876Z,97392.91
2023-01-03T23:45:33.503Z,97392.00
2023-01-03T23:48:02.357Z,97388.59
2023-01-03T23:50:32.134Z,97396.16
2023-01-03T23:53:00.718Z,97397.81
2023-01-03T23:55:29.843Z,97398.56
2023-01-03T23:57:58.488Z,97402.69
